createdAt,value
2023-01-20T00:00:31.047Z,1.30
2023-01-20T00:02:58.457Z,1.10
2023-01-20T00:05:27.036Z,1.00
2023-01-20T00:07:54.319Z,1.00
2023-01-20T00:10:21.939Z,1.00
2023-01-20T00:12:49.326Z,1.10
2023-01-20T00:15:16.681Z,1.20
2023-01-20T00:17:43.832Z,1.10
2023-01-20T00:20:12.890Z,1.10
2023-01-20T00:22:44.369Z,1.10
2023-01-20T00:25:11.795Z,1.10
2023-01-20T00:27:39.441Z,1.00
2023-01-20T00:30:08.939Z,1.00
2023-01-20T00:32:38.234Z,1.00
2023-01-20T00:35:06.960Z,1.10
2023-01-20T00:37:34.244Z,1.00
2023-01-20T00:40:03.020Z,1.00
2023-01-20T00:42:30.427Z,0.90
2023-01-20T00:44:57.658Z,0.90
2023-01-20T00:47:24.948Z,0.80
2023-01-20T00:49:52.309Z,0.80
2023-01-20T00:52:19.632Z,0.80
2023-01-20T00:54:49.123Z,0.90
2023-01-20T00:57:17.856Z,0.90
2023-01-20T00:59:44.971Z,0.80
2023-01-20T01:02:12.283Z,0.70
2023-01-20T01:04:39.602Z,0.70
2023-01-20T01:07:06.805Z,0.70
2023-01-20T01:09:34.410Z,0.80
2023-01-20T01:12:01.483Z,0.80
2023-01-20T01:14:32.422Z,0.90
2023-01-20T01:16:59.620Z,0.90
2023-01-20T01:19:26.754Z,0.80
2023-01-20T01:21:54.052Z,0.60
2023-01-20T01:24:21.393Z,0.60
2023-01-20T01:26:48.801Z,0.60
2023-01-20T01:29:15.901Z,0.40
2023-01-20T01:31:44.999Z,0.40
2023-01-20T01:34:12.247Z,0.60
2023-01-20T01:36:39.477Z,0.50
2023-01-20T01:39:06.629Z,0.50
2023-01-20T01:41:33.755Z,0.50
2023-01-20T01:44:05.056Z,0.60
2023-01-20T01:46:32.481Z,0.50
2023-01-20T01:49:04.147Z,0.30
2023-01-20T01:51:36.208Z,0.40
2023-01-20T01:54:08.860Z,0.40
2023-01-20T01:56:37.199Z,0.20
2023-01-20T01:59:05.097Z,0.20
2023-01-20T02:01:34.712Z,0.30
2023-01-20T02:04:07.639Z,0.30
2023-01-20T02:06:40.286Z,0.20
2023-01-20T02:09:07.631Z,0.30
2023-01-20T02:11:45.513Z,0.50
2023-01-20T02:14:12.835Z,0.50
2023-01-20T02:16:51.627Z,0.40
2023-01-20T02:20:00.609Z,0.50
2023-01-20T02:22:41.492Z,0.30
2023-01-20T02:25:52.430Z,0.40
2023-01-20T02:29:08.778Z,0.40
2023-01-20T02:32:17.606Z,0.50
2023-01-20T02:34:52.098Z,0.40
2023-01-20T02:37:24.306Z,0.40
2023-01-20T02:40:05.393Z,0.40
2023-01-20T02:42:41.320Z,0.50
2023-01-20T02:45:17.445Z,0.50
2023-01-20T02:47:53.298Z,0.50
2023-01-20T02:50:25.117Z,0.60
2023-01-20T02:52:55.932Z,0.60
2023-01-20T02:55:31.470Z,0.60
2023-01-20T02:58:04.015Z,0.50
2023-01-20T03:00:37.845Z,0.50
2023-01-20T03:03:10.677Z,0.40
2023-01-20T03:05:43.143Z,0.40
2023-01-20T03:08:12.417Z,0.50
2023-01-20T03:10:42.179Z,0.60
2023-01-20T03:13:15.703Z,0.70
2023-01-20T03:15:55.419Z,0.70
2023-01-20T03:18:25.177Z,0.70
2023-01-20T03:20:52.248Z,0.70
2023-01-20T03:23:19.375Z,0.60
2023-01-20T03:25:47.907Z,0.60
2023-01-20T03:28:15.076Z,0.60
2023-01-20T03:30:42.171Z,0.50
2023-01-20T03:33:10.250Z,0.40
2023-01-20T03:35:40.010Z,0.50
2023-01-20T03:38:07.414Z,0.50
2023-01-20T03:40:43.671Z,0.40
2023-01-20T03:43:20.001Z,0.50
2023-01-20T03:45:55.477Z,0.50
2023-01-20T03:48:32.072Z,0.60
2023-01-20T03:51:12.727Z,0.50
2023-01-20T03:53:47.856Z,0.50
2023-01-20T03:56:21.715Z,0.50
2023-01-20T03:58:51.984Z,0.60
2023-01-20T04:01:23.630Z,0.60
2023-01-20T04:03:53.706Z,0.60
2023-01-20T04:06:26.704Z,0.60
2023-01-20T04:08:58.111Z,0.70
2023-01-20T04:11:27.243Z,0.70
2023-01-20T04:13:54.986Z,0.70
2023-01-20T04:16:23.812Z,0.90
2023-01-20T04:18:52.265Z,0.90
2023-01-20T04:21:28.806Z,0.90
2023-01-20T04:24:01.435Z,1.00
2023-01-20T04:26:28.452Z,0.90
2023-01-20T04:28:55.477Z,0.90
2023-01-20T04:31:30.484Z,0.90
2023-01-20T04:33:58.306Z,0.80
2023-01-20T04:36:26.761Z,0.80
2023-01-20T04:38:53.689Z,0.80
2023-01-20T04:41:20.830Z,0.90
2023-01-20T04:43:47.851Z,0.90
2023-01-20T04:46:16.252Z,0.90
2023-01-20T04:48:46.204Z,0.90
2023-01-20T04:51:13.668Z,0.90
2023-01-20T04:53:42.278Z,0.90
2023-01-20T04:56:12.296Z,0.90
2023-01-20T04:58:39.786Z,0.90
2023-01-20T05:01:06.972Z,0.80
2023-01-20T05:03:34.311Z,0.90
2023-01-20T05:06:01.623Z,0.90
2023-01-20T05:08:28.758Z,0.90
2023-01-20T05:10:57.006Z,0.80
2023-01-20T05:13:24.253Z,0.80
2023-01-20T05:15:51.157Z,1.00
2023-01-20T05:18:18.066Z,1.00
2023-01-20T05:20:45.588Z,1.00
2023-01-20T05:23:12.584Z,1.10
2023-01-20T05:25:39.798Z,1.00
2023-01-20T05:28:08.469Z,1.00
2023-01-20T05:30:35.430Z,1.00
2023-01-20T05:33:02.353Z,1.10
2023-01-20T05:35:29.458Z,1.10
2023-01-20T05:37:56.550Z,1.10
2023-01-20T05:40:23.499Z,1.20
2023-01-20T05:42:50.508Z,1.20
2023-01-20T05:45:18.836Z,1.10
2023-01-20T05:47:45.737Z,1.00
2023-01-20T05:50:12.944Z,1.00
2023-01-20T05:52:40.142Z,1.10
2023-01-20T05:55:07.890Z,1.20
2023-01-20T05:57:34.994Z,1.30
2023-01-20T06:00:02.104Z,1.30
2023-01-20T06:02:32.143Z,1.30
2023-01-20T06:05:01.646Z,1.30
2023-01-20T06:07:29.421Z,1.30
2023-01-20T06:09:56.971Z,1.30
2023-01-20T06:12:24.554Z,1.30
2023-01-20T06:14:51.935Z,1.50
2023-01-20T06:17:18.931Z,1.60
2023-01-20T06:19:47.376Z,1.50
2023-01-20T06:22:15.527Z,1.40
2023-01-20T06:24:42.558Z,1.20
2023-01-20T06:27:12.246Z,1.30
2023-01-20T06:29:40.530Z,1.40
2023-01-20T06:32:07.593Z,1.40
2023-01-20T06:34:34.747Z,1.30
2023-01-20T06:37:03.857Z,1.30
2023-01-20T06:39:30.919Z,1.20
2023-01-20T06:41:58.866Z,1.10
2023-01-20T06:44:26.442Z,1.20
2023-01-20T06:46:53.771Z,1.20
2023-01-20T06:49:20.714Z,1.10
2023-01-20T06:51:48.892Z,1.20
2023-01-20T06:54:17.310Z,1.20
2023-01-20T06:56:44.548Z,1.20
2023-01-20T06:59:12.301Z,1.20
2023-01-20T07:01:40.432Z,1.30
2023-01-20T07:04:08.430Z,1.40
2023-01-20T07:06:38.373Z,1.30
2023-01-20T07:09:08.001Z,1.40
2023-01-20T07:11:36.486Z,1.30
2023-01-20T07:14:06.268Z,1.40
2023-01-20T07:16:33.545Z,1.50
2023-01-20T07:19:00.693Z,1.40
2023-01-20T07:21:28.087Z,1.40
2023-01-20T07:23:55.386Z,1.40
2023-01-20T07:26:26.230Z,1.40
2023-01-20T07:28:54.807Z,1.40
2023-01-20T07:31:24.816Z,1.40
2023-01-20T07:33:52.174Z,1.50
2023-01-20T07:36:19.144Z,1.50
2023-01-20T07:38:48.907Z,1.40
2023-01-20T07:41:18.082Z,1.50
2023-01-20T07:43:46.810Z,1.50
2023-01-20T07:46:16.070Z,1.60
2023-01-20T07:48:43.712Z,1.70
2023-01-20T07:51:14.032Z,1.80
2023-01-20T07:53:49.587Z,1.70
2023-01-20T07:56:19.324Z,1.40
2023-01-20T07:58:47.543Z,1.50
2023-01-20T08:01:18.914Z,1.50
2023-01-20T08:03:46.840Z,1.50
2023-01-20T08:06:16.387Z,1.40
2023-01-20T08:08:43.751Z,1.40
2023-01-20T08:11:13.873Z,1.40
2023-01-20T08:13:41.312Z,1.40
2023-01-20T08:16:10.789Z,1.60
2023-01-20T08:18:40.163Z,1.60
2023-01-20T08:21:15.142Z,1.60
2023-01-20T08:23:42.223Z,1.60
2023-01-20T08:26:09.203Z,1.70
2023-01-20T08:28:36.968Z,1.70
2023-01-20T08:31:06.891Z,1.70
2023-01-20T08:33:34.203Z,1.70
2023-01-20T08:36:09.977Z,1.80
2023-01-20T08:38:37.894Z,1.80
2023-01-20T08:41:07.970Z,1.80
2023-01-20T08:43:35.120Z,1.80
2023-01-20T08:46:06.443Z,1.80
2023-01-20T08:48:33.883Z,1.80
2023-01-20T08:51:04.106Z,1.80
2023-01-20T08:53:32.510Z,1.80
2023-01-20T08:56:02.234Z,1.70
2023-01-20T08:58:30.130Z,1.80
2023-01-20T09:00:57.351Z,1.90
2023-01-20T09:03:25.079Z,2.00
2023-01-20T09:05:52.838Z,2.10
2023-01-20T09:08:20.909Z,2.30
2023-01-20T09:10:49.230Z,2.30
2023-01-20T09:13:16.266Z,2.30
2023-01-20T09:15:43.434Z,2.30
2023-01-20T09:18:10.570Z,2.30
2023-01-20T09:20:37.607Z,2.30
2023-01-20T09:23:04.793Z,2.40
2023-01-20T09:25:31.823Z,2.40
2023-01-20T09:28:01.933Z,2.50
2023-01-20T09:30:28.948Z,2.50
2023-01-20T09:32:58.140Z,2.40
2023-01-20T09:35:25.385Z,2.40
2023-01-20T09:38:11.096Z,2.40
2023-01-20T09:41:09.968Z,2.40
2023-01-20T09:43:56.000Z,2.40
2023-01-20T09:46:42.691Z,2.40
2023-01-20T09:49:43.707Z,2.40
2023-01-20T09:52:37.181Z,2.40
2023-01-20T09:55:13.089Z,2.50
2023-01-20T09:57:49.123Z,2.60
2023-01-20T10:00:23.417Z,2.60
2023-01-20T10:02:57.337Z,2.80
2023-01-20T10:05:33.026Z,2.80
2023-01-20T10:08:06.231Z,2.80
2023-01-20T10:10:38.372Z,2.90
2023-01-20T10:13:14.355Z,3.00
2023-01-20T10:15:47.704Z,3.00
2023-01-20T10:18:20.762Z,3.10
2023-01-20T10:20:53.346Z,3.20
2023-01-20T10:23:28.081Z,3.40
2023-01-20T10:26:05.359Z,3.40
2023-01-20T10:28:38.147Z,3.40
2023-01-20T10:31:07.160Z,3.30
2023-01-20T10:33:38.805Z,3.40
2023-01-20T10:36:14.321Z,3.40
2023-01-20T10:38:55.253Z,3.50
2023-01-20T10:41:37.661Z,3.50
2023-01-20T10:44:12.011Z,3.50
2023-01-20T10:46:57.045Z,3.60
2023-01-20T10:50:07.610Z,3.70
2023-01-20T10:52:53.891Z,3.70
2023-01-20T10:55:36.171Z,3.80
2023-01-20T10:58:16.249Z,3.90
2023-01-20T11:00:44.268Z,4.00
2023-01-20T11:03:17.901Z,4.10
2023-01-20T11:05:47.096Z,4.00
2023-01-20T11:08:18.408Z,4.00
2023-01-20T11:10:47.563Z,4.00
2023-01-20T11:13:14.899Z,4.00
2023-01-20T11:15:46.437Z,4.10
2023-01-20T11:18:28.846Z,4.10
2023-01-20T11:21:02.842Z,4.00
2023-01-20T11:23:40.829Z,4.10
2023-01-20T11:26:18.437Z,4.10
2023-01-20T11:28:51.959Z,4.10
2023-01-20T11:31:20.732Z,4.20
2023-01-20T11:34:01.875Z,4.20
2023-01-20T11:36:29.841Z,4.20
2023-01-20T11:38:58.157Z,4.20
2023-01-20T11:41:27.647Z,4.20
2023-01-20T11:43:56.640Z,4.20
2023-01-20T11:46:30.402Z,4.30
2023-01-20T11:49:17.880Z,4.30
2023-01-20T11:51:51.628Z,4.30
2023-01-20T11:54:22.019Z,4.30
2023-01-20T11:56:54.248Z,4.30
2023-01-20T11:59:35.035Z,4.30
2023-01-20T12:02:23.337Z,4.30
2023-01-20T12:05:09.904Z,4.30
2023-01-20T12:07:42.461Z,4.50
2023-01-20T12:10:18.215Z,4.50
2023-01-20T12:12:51.475Z,4.60
2023-01-20T12:15:22.807Z,4.60
2023-01-20T12:17:58.866Z,4.70
2023-01-20T12:20:45.666Z,4.60
2023-01-20T12:23:35.755Z,4.70
2023-01-20T12:26:05.336Z,4.70
2023-01-20T12:28:40.907Z,4.80
2023-01-20T12:31:10.919Z,4.70
2023-01-20T12:33:40.513Z,4.70
2023-01-20T12:36:59.191Z,4.70
2023-01-20T12:39:49.862Z,4.70
2023-01-20T12:43:09.536Z,4.60
2023-01-20T12:45:57.442Z,4.60
2023-01-20T12:48:37.728Z,4.50
2023-01-20T12:51:20.990Z,4.50
2023-01-20T12:54:35.774Z,4.40
2023-01-20T12:57:25.037Z,4.50
2023-01-20T13:00:13.959Z,4.30
2023-01-20T13:03:09.345Z,4.40
2023-01-20T13:06:03.417Z,4.40
2023-01-20T13:08:43.685Z,4.50
2023-01-20T13:11:23.870Z,4.40
2023-01-20T13:14:06.797Z,4.30
2023-01-20T13:16:42.663Z,4.40
2023-01-20T13:19:15.964Z,4.40
2023-01-20T13:22:07.393Z,4.40
2023-01-20T13:24:35.714Z,4.50
2023-01-20T13:27:04.506Z,4.50
2023-01-20T13:29:46.257Z,4.50
2023-01-20T13:32:33.325Z,4.50
2023-01-20T13:35:01.908Z,4.50
2023-01-20T13:37:35.851Z,4.60
2023-01-20T13:40:05.546Z,4.60
2023-01-20T13:42:52.284Z,4.60
2023-01-20T13:45:26.726Z,4.60
2023-01-20T13:48:02.086Z,4.50
2023-01-20T13:50:33.032Z,4.50
2023-01-20T13:53:21.078Z,4.50
2023-01-20T13:56:00.314Z,4.50
2023-01-20T13:58:31.699Z,4.40
2023-01-20T14:01:01.463Z,4.40
2023-01-20T14:03:31.589Z,4.40
2023-01-20T14:06:01.677Z,4.40
2023-01-20T14:08:32.463Z,4.30
2023-01-20T14:11:22.178Z,4.30
2023-01-20T14:13:55.840Z,4.40
2023-01-20T14:16:26.836Z,4.40
2023-01-20T14:18:57.579Z,4.40
2023-01-20T14:21:27.476Z,4.40
2023-01-20T14:23:54.746Z,4.30
2023-01-20T14:26:24.737Z,4.40
2023-01-20T14:28:55.511Z,4.40
2023-01-20T14:31:42.670Z,4.40
2023-01-20T14:34:26.161Z,4.40
2023-01-20T14:36:54.248Z,4.50
2023-01-20T14:39:24.900Z,4.50
2023-01-20T14:41:54.238Z,4.50
2023-01-20T14:44:25.436Z,4.50
2023-01-20T14:46:55.613Z,4.50
2023-01-20T14:49:26.959Z,4.50
2023-01-20T14:51:55.027Z,4.50
2023-01-20T14:54:42.189Z,4.50
2023-01-20T14:57:27.449Z,4.50
2023-01-20T15:00:22.430Z,4.50
2023-01-20T15:03:09.233Z,4.50
2023-01-20T15:05:41.428Z,4.40
2023-01-20T15:08:26.343Z,4.50
2023-01-20T15:11:21.561Z,4.50
2023-01-20T15:14:16.014Z,4.40
2023-01-20T15:16:50.226Z,4.40
2023-01-20T15:19:32.314Z,4.40
2023-01-20T15:22:26.636Z,4.40
2023-01-20T15:24:57.402Z,4.50
2023-01-20T15:27:29.438Z,4.50
2023-01-20T15:30:04.191Z,4.50
2023-01-20T15:32:32.979Z,4.50
2023-01-20T15:35:00.170Z,4.40
2023-01-20T15:37:27.397Z,4.40
2023-01-20T15:39:54.534Z,4.40
2023-01-20T15:42:23.890Z,4.40
2023-01-20T15:44:51.455Z,4.50
2023-01-20T15:47:26.160Z,4.40
2023-01-20T15:49:54.891Z,4.40
2023-01-20T15:52:22.171Z,4.40
2023-01-20T15:54:49.553Z,4.40
2023-01-20T15:57:18.108Z,4.40
2023-01-20T15:59:46.043Z,4.40
2023-01-20T16:02:18.530Z,4.40
2023-01-20T16:04:46.132Z,4.40
2023-01-20T16:07:18.274Z,4.20
2023-01-20T16:09:47.037Z,4.20
2023-01-20T16:12:16.351Z,4.30
2023-01-20T16:14:44.733Z,4.30
2023-01-20T16:17:14.797Z,4.30
2023-01-20T16:19:42.048Z,4.20
2023-01-20T16:22:10.571Z,4.20
2023-01-20T16:24:39.445Z,4.20
2023-01-20T16:27:17.621Z,4.10
2023-01-20T16:29:45.583Z,4.20
2023-01-20T16:32:15.233Z,4.10
2023-01-20T16:34:44.243Z,4.10
2023-01-20T16:37:14.214Z,4.00
2023-01-20T16:39:42.907Z,3.90
2023-01-20T16:42:11.985Z,3.90
2023-01-20T16:44:39.296Z,3.90
2023-01-20T16:47:08.347Z,3.80
2023-01-20T16:49:35.631Z,3.70
2023-01-20T16:52:02.912Z,3.60
2023-01-20T16:54:30.312Z,3.60
2023-01-20T16:56:59.439Z,3.60
2023-01-20T16:59:26.592Z,3.60
2023-01-20T17:01:56.151Z,3.70
2023-01-20T17:04:23.430Z,3.60
2023-01-20T17:06:53.228Z,3.60
2023-01-20T17:09:20.548Z,3.60
2023-01-20T17:11:48.439Z,3.60
2023-01-20T17:14:16.913Z,3.50
2023-01-20T17:16:44.227Z,3.50
2023-01-20T17:19:13.297Z,3.40
2023-01-20T17:21:40.706Z,3.20
2023-01-20T17:24:10.186Z,3.20
2023-01-20T17:26:37.875Z,3.40
2023-01-20T17:29:06.976Z,3.40
2023-01-20T17:31:36.847Z,3.40
2023-01-20T17:34:04.728Z,3.30
2023-01-20T17:36:34.690Z,3.30
2023-01-20T17:39:02.995Z,3.40
2023-01-20T17:41:32.161Z,3.50
2023-01-20T17:43:59.358Z,3.50
2023-01-20T17:46:29.004Z,3.50
2023-01-20T17:48:58.843Z,3.40
2023-01-20T17:51:29.068Z,3.40
2023-01-20T17:53:57.632Z,3.40
2023-01-20T17:56:25.297Z,3.40
2023-01-20T17:58:53.978Z,3.50
2023-01-20T18:01:23.536Z,3.50
2023-01-20T18:03:53.463Z,3.50
2023-01-20T18:06:24.032Z,3.40
2023-01-20T18:08:54.571Z,3.50
2023-01-20T18:11:23.240Z,3.50
2023-01-20T18:13:55.819Z,3.30
2023-01-20T18:16:26.739Z,3.40
2023-01-20T18:18:58.612Z,3.30
2023-01-20T18:21:29.879Z,3.40
2023-01-20T18:23:58.360Z,3.40
2023-01-20T18:26:29.876Z,3.40
2023-01-20T18:28:58.514Z,3.40
2023-01-20T18:31:28.596Z,3.40
2023-01-20T18:33:58.611Z,3.40
2023-01-20T18:36:30.649Z,3.40
2023-01-20T18:39:00.447Z,3.30
2023-01-20T18:41:30.082Z,3.30
2023-01-20T18:43:57.542Z,3.20
2023-01-20T18:46:26.146Z,3.20
2023-01-20T18:48:55.278Z,3.20
2023-01-20T18:51:26.799Z,3.20
2023-01-20T18:53:56.651Z,3.10
2023-01-20T18:56:25.421Z,3.10
2023-01-20T18:58:54.637Z,3.20
2023-01-20T19:01:25.474Z,3.10
2023-01-20T19:03:55.289Z,3.10
2023-01-20T19:06:27.122Z,3.10
2023-01-20T19:08:56.623Z,3.10
2023-01-20T19:11:25.900Z,3.10
2023-01-20T19:13:53.682Z,3.10
2023-01-20T19:16:23.331Z,3.00
2023-01-20T19:18:52.876Z,3.10
2023-01-20T19:21:23.258Z,3.00
2023-01-20T19:23:53.788Z,3.00
2023-01-20T19:26:23.087Z,3.10
2023-01-20T19:28:57.228Z,3.10
2023-01-20T19:31:24.696Z,3.10
2023-01-20T19:33:52.195Z,3.10
2023-01-20T19:36:19.916Z,3.10
2023-01-20T19:38:47.618Z,3.20
2023-01-20T19:41:21.447Z,3.20
2023-01-20T19:43:55.566Z,3.10
2023-01-20T19:46:24.488Z,3.10
2023-01-20T19:48:52.700Z,3.00
2023-01-20T19:51:20.828Z,3.10
2023-01-20T19:53:50.180Z,3.10
2023-01-20T19:56:20.314Z,3.00
2023-01-20T19:58:48.845Z,3.00
2023-01-20T20:01:18.344Z,3.10
2023-01-20T20:03:46.288Z,3.10
2023-01-20T20:06:25.982Z,3.10
2023-01-20T20:08:56.123Z,3.10
2023-01-20T20:11:25.150Z,3.10
2023-01-20T20:13:55.718Z,3.00
2023-01-20T20:16:24.828Z,3.00
2023-01-20T20:18:53.474Z,3.00
2023-01-20T20:21:24.722Z,3.00
2023-01-20T20:23:53.697Z,3.00
2023-01-20T20:26:22.907Z,3.00
2023-01-20T20:28:51.609Z,3.00
2023-01-20T20:31:22.397Z,3.00
2023-01-20T20:33:49.788Z,3.00
2023-01-20T20:36:17.092Z,3.00
2023-01-20T20:38:51.309Z,3.00
2023-01-20T20:41:20.697Z,3.00
2023-01-20T20:43:48.454Z,3.10
2023-01-20T20:46:17.202Z,3.00
2023-01-20T20:48:44.651Z,3.00
2023-01-20T20:51:14.604Z,3.00
2023-01-20T20:53:42.833Z,3.00
2023-01-20T20:56:12.623Z,2.90
2023-01-20T20:58:59.526Z,3.00
2023-01-20T21:01:31.055Z,2.90
2023-01-20T21:04:00.544Z,2.80
2023-01-20T21:06:28.809Z,2.80
2023-01-20T21:08:56.426Z,2.80
2023-01-20T21:11:24.901Z,2.90
2023-01-20T21:13:53.086Z,2.90
2023-01-20T21:16:23.374Z,2.90
2023-01-20T21:18:54.067Z,2.90
2023-01-20T21:21:21.797Z,2.90
2023-01-20T21:23:51.076Z,2.80
2023-01-20T21:26:19.433Z,2.90
2023-01-20T21:28:49.217Z,2.90
2023-01-20T21:31:23.706Z,2.90
2023-01-20T21:33:56.460Z,2.90
2023-01-20T21:36:24.558Z,2.90
2023-01-20T21:38:52.493Z,2.80
2023-01-20T21:41:20.313Z,2.80
2023-01-20T21:44:07.506Z,2.80
2023-01-20T21:46:39.019Z,2.90
2023-01-20T21:49:27.395Z,2.90
2023-01-20T21:52:14.228Z,3.00
2023-01-20T21:54:44.977Z,2.90
2023-01-20T21:57:12.755Z,2.90
2023-01-20T21:59:40.077Z,3.00
2023-01-20T22:02:08.512Z,3.00
2023-01-20T22:04:42.140Z,3.00
2023-01-20T22:07:10.648Z,2.90
2023-01-20T22:09:38.245Z,2.90
2023-01-20T22:12:10.679Z,2.80
2023-01-20T22:14:38.348Z,2.80
2023-01-20T22:17:06.441Z,2.80
2023-01-20T22:19:34.344Z,2.80
2023-01-20T22:22:04.011Z,2.80
2023-01-20T22:24:31.958Z,2.90
2023-01-20T22:27:00.012Z,2.90
2023-01-20T22:29:30.103Z,2.90
2023-01-20T22:32:03.208Z,2.90
2023-01-20T22:34:30.650Z,2.90
2023-01-20T22:36:58.228Z,2.90
2023-01-20T22:39:30.690Z,2.90
2023-01-20T22:41:58.012Z,2.90
2023-01-20T22:44:25.196Z,2.90
2023-01-20T22:46:52.816Z,2.80
2023-01-20T22:49:20.291Z,2.80
2023-01-20T22:51:48.235Z,2.90
2023-01-20T22:54:15.603Z,2.80
2023-01-20T22:56:44.164Z,2.80
2023-01-20T22:59:13.720Z,2.70
2023-01-20T23:01:41.137Z,2.70
2023-01-20T23:04:09.650Z,2.70
2023-01-20T23:06:37.241Z,2.70
2023-01-20T23:09:08.428Z,2.60
2023-01-20T23:11:38.237Z,2.70
2023-01-20T23:14:10.733Z,2.80
2023-01-20T23:16:38.540Z,2.80
2023-01-20T23:19:06.073Z,2.80
2023-01-20T23:21:33.197Z,2.80
2023-01-20T23:24:00.619Z,2.80
2023-01-20T23:26:30.075Z,2.90
2023-01-20T23:28:57.718Z,2.90
2023-01-20T23:31:28.636Z,2.80
2023-01-20T23:33:55.960Z,2.80
2023-01-20T23:36:27.845Z,2.80
2023-01-20T23:38:56.236Z,2.80
2023-01-20T23:41:24.567Z,2.80
2023-01-20T23:43:51.880Z,2.70
2023-01-20T23:46:19.174Z,2.80
2023-01-20T23:48:48.061Z,2.80
2023-01-20T23:51:15.795Z,2.80
2023-01-20T23:53:43.257Z,2.80
2023-01-20T23:56:13.961Z,2.80
2023-01-20T23:58:41.607Z,2.70
